Saint George Island, Florida
Current Conditions -  °F | °C
As of 8:53 AM on Saturday 22 Nov 2014 (Local Time) from KAAF Reporting Station
Overcast Overcast  
Wind Chill: 60°   Ceiling: 7500
Heat Index: 60°   Visibility: 10mi
Dew Point: 49°   Wind: 14mph
Humidity: 67%   Direction: 70°ENE
Pressure: 30.28"   Gusts: NA
Location:  29.8852°N, 84.8748°W
Report Text: KAAF 221353Z AUTO 07012KT 10SM BKN075 OVC090 16/09 A3028 RMK AO2 SLP254 T01560094 TSNO
Loading
Personal Weather Stations






























Interactive Weather Map New forecast layout! Learn more

10-Day Weather Forecast

Advertisements
Track Severe Weather on mobile